Time;durP1;ratioP1;P1;durP2;ratioP2;P2;SDS_P1;SDS_P2;PMS_P1;PMS_P2;Temp;Humidity;BMP_temperature;BMP_pressure;BME280_temperature;BME280_humidity;BME280_pressure;Samples;Min_cycle;Max_cycle;Signal;HPM_P1;HPM_P2
2023/10/05 00:00:32;;;;;;;2.10;1.67;;;;;;;9.64;100.00;101336.44;5022817;28;20215;-82
2023/10/05 00:02:45;;;;;;;2.40;1.60;;;;;;;9.64;100.00;101333.84;5025478;28;20246;-82
2023/10/05 00:05:11;;;;;;;2.20;1.60;;;;;;;9.67;100.00;101333.91;5028178;28;20535;-83
2023/10/05 00:07:36;;;;;;;3.47;2.40;;;;;;;9.66;100.00;101329.56;5030040;28;20223;-82
2023/10/05 00:10:03;;;;;;;3.33;1.70;;;;;;;9.66;100.00;101330.44;5016310;28;20282;-82
2023/10/05 00:12:30;;;;;;;2.57;1.50;;;;;;;9.66;100.00;101324.41;5025092;28;20225;-83
2023/10/05 00:15:13;;;;;;;;;;;;;;;;;;;;;
2023/10/05 00:17:31;;;;;;;1.73;1.43;;;;;;;9.69;100.00;101317.53;5031263;28;20182;-81
2023/10/05 00:19:57;;;;;;;2.50;1.47;;;;;;;9.72;100.00;101320.19;5017060;28;20186;-82
2023/10/05 00:22:22;;;;;;;3.17;1.60;;;;;;;9.73;100.00;101319.31;5026580;28;20194;-81
2023/10/05 00:24:49;;;;;;;1.60;1.47;;;;;;;9.75;100.00;101315.03;5027658;28;20192;-81
2023/10/05 00:27:15;;;;;;;2.23;1.97;;;;;;;9.77;100.00;101309.88;5023420;28;20184;-81
2023/10/05 00:29:41;;;;;;;1.60;1.30;;;;;;;9.80;100.00;101296.09;5023512;28;20910;-82
2023/10/05 00:32:15;;;;;;;2.40;1.53;;;;;;;9.84;100.00;101298.75;5026996;28;20264;-83
2023/10/05 00:34:42;;;;;;;3.57;1.90;;;;;;;9.87;100.00;101298.78;5030683;28;20184;-82
2023/10/05 00:37:08;;;;;;;2.60;1.67;;;;;;;9.89;100.00;101294.50;5037336;28;20218;-82
2023/10/05 00:39:34;;;;;;;2.70;2.00;;;;;;;9.89;100.00;101288.47;5020929;28;20184;-82
2023/10/05 00:44:32;;;;;;;2.40;1.77;;;;;;;9.87;100.00;101291.00;5021624;28;20192;-84
2023/10/05 00:47:00;;;;;;;2.53;1.90;;;;;;;9.86;100.00;101289.28;5046387;28;20180;-84
2023/10/05 00:49:30;;;;;;;2.50;1.87;;;;;;;9.83;100.00;101288.38;5034321;28;20244;-82
2023/10/05 00:52:11;;;;;;;3.53;1.67;;;;;;;9.82;100.00;101279.78;5031615;28;20261;-82
2023/10/05 00:54:40;;;;;;;2.43;2.00;;;;;;;9.77;100.00;101281.44;5022261;28;20219;-82
2023/10/05 00:57:09;;;;;;;4.03;1.83;;;;;;;9.74;100.00;101284.00;5034448;28;20187;-81
2023/10/05 00:59:38;;;;;;;2.00;1.43;;;;;;;9.69;100.00;101278.78;5022471;28;20183;-83
2023/10/05 01:02:06;;;;;;;2.83;1.70;;;;;;;9.64;100.00;101271.84;5022016;28;20200;-83
2023/10/05 01:04:52;;;;;;;2.67;1.70;;;;;;;9.62;100.00;101269.22;5021967;28;20211;-83
2023/10/05 01:07:19;;;;;;;2.33;1.80;;;;;;;9.59;100.00;101270.06;5024119;28;20251;-82
2023/10/05 01:12:41;;;;;;;2.00;1.80;;;;;;;9.51;100.00;101265.66;5030179;28;20183;-83
2023/10/05 01:15:07;;;;;;;2.30;1.70;;;;;;;9.48;100.00;101271.66;5023391;28;20226;-83
2023/10/05 01:17:35;;;;;;;2.87;1.67;;;;;;;9.48;100.00;101271.66;5020964;28;20203;-81
2023/10/05 01:20:22;;;;;;;2.83;2.17;;;;;;;9.48;100.00;101268.19;5059622;28;20287;-81
2023/10/05 01:22:54;;;;;;;2.43;2.00;;;;;;;9.48;100.00;101250.09;5025233;28;20230;-81
2023/10/05 01:25:20;;;;;;;1.77;1.67;;;;;;;9.48;100.00;101243.22;5022835;28;20233;-82
2023/10/05 01:27:47;;;;;;;4.53;2.07;;;;;;;9.49;100.00;101244.97;5025780;28;20208;-82
2023/10/05 01:30:14;;;;;;;2.43;1.77;;;;;;;9.51;100.00;101247.56;5027750;28;20215;-82
2023/10/05 01:32:43;;;;;;;2.73;1.70;;;;;;;9.52;100.00;101246.72;5028971;28;20579;-82
2023/10/05 01:35:12;;;;;;;3.27;1.97;;;;;;;9.53;100.00;101246.72;5023334;28;20221;-83
2023/10/05 01:37:38;;;;;;;2.60;2.37;;;;;;;9.52;100.00;101247.59;5028283;28;20183;-82
2023/10/05 01:40:20;;;;;;;2.50;2.00;;;;;;;9.50;100.00;101243.25;5024826;28;20667;-82
2023/10/05 01:42:47;;;;;;;2.83;1.93;;;;;;;9.48;100.00;101250.09;5025755;28;20280;-82
2023/10/05 01:45:21;;;;;;;3.60;1.83;;;;;;;9.43;100.00;101248.34;5030088;28;20235;-84
2023/10/05 01:47:46;;;;;;;2.77;1.90;;;;;;;9.40;100.00;101255.19;5026078;28;20189;-83
2023/10/05 01:50:19;;;;;;;2.40;2.20;;;;;;;9.37;100.00;101260.34;5016171;28;20718;-83
2023/10/05 01:52:56;;;;;;;4.20;1.73;;;;;;;9.32;100.00;101264.56;5022916;28;20741;-82
2023/10/05 01:55:25;;;;;;;3.37;2.00;;;;;;;9.28;100.00;101261.94;5015401;28;20195;-83
2023/10/05 01:57:52;;;;;;;3.40;1.67;;;;;;;9.25;100.00;101261.06;5025572;28;20188;-82
2023/10/05 02:00:20;;;;;;;2.73;1.73;;;;;;;9.23;100.00;101261.00;5021699;28;20202;-83
2023/10/05 02:02:46;;;;;;;2.67;1.87;;;;;;;9.25;100.00;101255.88;5031607;28;20267;-82
2023/10/05 02:05:13;;;;;;;2.37;1.70;;;;;;;9.25;100.00;101255.88;5021531;28;20829;-83
2023/10/05 02:07:39;;;;;;;2.63;2.10;;;;;;;9.28;100.00;101259.38;5027711;28;20187;-81
2023/10/05 02:10:09;;;;;;;1.80;1.60;;;;;;;9.26;100.00;101249.88;5022746;28;20281;-82
2023/10/05 02:12:35;;;;;;;2.30;1.50;;;;;;;9.28;100.00;101243.88;5022871;28;20673;-82
2023/10/05 02:15:10;;;;;;;1.67;1.57;;;;;;;9.32;100.00;101244.75;5026160;28;20200;-83
2023/10/05 02:17:42;;;;;;;2.53;1.97;;;;;;;9.36;100.00;101243.09;5023539;28;20217;-82
2023/10/05 02:20:17;;;;;;;3.47;1.63;;;;;;;9.41;100.00;101244.00;5021125;28;20202;-82
2023/10/05 02:22:47;;;;;;;2.33;1.73;;;;;;;9.45;100.00;101246.63;5019678;28;20187;-82
2023/10/05 02:25:12;;;;;;;1.83;1.57;;;;;;;9.52;100.00;101246.72;5024431;28;20322;-85
2023/10/05 02:27:46;;;;;;;2.00;1.33;;;;;;;9.56;100.00;101243.31;5020170;28;20247;-82
2023/10/05 02:30:13;;;;;;;2.23;1.80;;;;;;;9.60;100.00;101240.78;5025301;28;20575;-83
2023/10/05 02:32:39;;;;;;;2.50;1.67;;;;;;;9.65;100.00;101248.56;5024936;28;20185;-83
2023/10/05 02:35:18;;;;;;;2.70;1.70;;;;;;;9.70;100.00;101240.84;5028299;28;20191;-81
2023/10/05 02:37:47;;;;;;;3.10;1.90;;;;;;;9.76;100.00;101234.03;5022160;28;20207;-81
2023/10/05 02:40:15;;;;;;;3.33;2.00;;;;;;;9.82;100.00;101230.66;5022811;28;20203;-83
2023/10/05 02:42:43;;;;;;;2.50;1.77;;;;;;;9.87;100.00;101231.56;5020319;28;20253;-83
2023/10/05 02:45:11;;;;;;;1.77;1.30;;;;;;;9.93;100.00;101235.06;5025049;28;20219;-81
2023/10/05 02:47:36;;;;;;;2.60;1.90;;;;;;;9.99;100.00;101238.56;5019400;28;20183;-84
2023/10/05 02:50:05;;;;;;;3.87;1.80;;;;;;;10.04;100.00;101238.59;5024051;28;20213;-83
2023/10/05 02:52:33;;;;;;;1.90;1.40;;;;;;;10.07;100.00;101228.28;5036728;28;20203;-83
2023/10/05 02:54:58;;;;;;;1.53;1.40;;;;;;;10.10;100.00;101230.91;5044461;28;20227;-85
2023/10/05 02:57:25;;;;;;;2.50;1.60;;;;;;;10.14;100.00;101224.88;5029002;28;20222;-82
2023/10/05 02:59:51;;;;;;;2.73;1.73;;;;;;;10.18;100.00;101230.97;5023926;28;20194;-81
2023/10/05 03:02:20;;;;;;;3.00;1.73;;;;;;;10.21;100.00;101226.66;5018661;28;20181;-82
2023/10/05 03:04:49;;;;;;;2.97;1.67;;;;;;;10.22;100.00;101225.81;5014657;28;20834;-81
2023/10/05 03:07:16;;;;;;;2.40;1.93;;;;;;;10.21;100.00;101228.38;5021675;28;20192;-82
2023/10/05 03:09:46;;;;;;;2.33;1.70;;;;;;;10.18;100.00;101224.06;5022809;28;20323;-83
2023/10/05 03:12:12;;;;;;;2.23;1.80;;;;;;;10.16;100.00;101233.50;5030656;28;20727;-81
2023/10/05 03:14:38;;;;;;;2.57;1.50;;;;;;;10.12;100.00;101221.44;5021559;28;20271;-82
2023/10/05 03:17:07;;;;;;;2.93;1.80;;;;;;;10.08;100.00;101232.59;5026102;28;21077;-83
2023/10/05 03:19:36;;;;;;;2.03;1.53;;;;;;;10.05;100.00;101232.56;5017260;28;20546;-82
2023/10/05 03:22:04;;;;;;;2.87;1.50;;;;;;;10.03;100.00;101234.28;5018036;28;20347;-83
2023/10/05 03:24:30;;;;;;;3.73;2.03;;;;;;;9.99;100.00;101238.56;5017459;28;20188;-83
2023/10/05 03:26:56;;;;;;;2.07;1.87;;;;;;;9.99;100.00;101245.44;5016008;28;20179;-82
2023/10/05 03:29:22;;;;;;;3.70;1.53;;;;;;;9.97;100.00;101254.94;5017040;28;20215;-82
2023/10/05 03:31:55;;;;;;;1.90;1.60;;;;;;;9.97;100.00;101250.59;5018994;28;20632;-83
2023/10/05 03:34:25;;;;;;;3.13;1.80;;;;;;;9.99;100.00;101248.91;5019702;28;20192;-81
2023/10/05 03:36:51;;;;;;;1.80;1.20;;;;;;;10.02;100.00;101242.88;5019622;28;20202;-82
2023/10/05 03:39:17;;;;;;;2.20;1.43;;;;;;;10.04;100.00;101244.66;5021158;28;20187;-82
2023/10/05 03:41:44;;;;;;;2.13;1.63;;;;;;;10.04;100.00;101243.75;5022498;28;20220;-82
2023/10/05 03:44:15;;;;;;;1.50;1.40;;;;;;;10.06;100.00;101255.84;5026885;28;20686;-83
2023/10/05 03:46:41;;;;;;;1.50;1.40;;;;;;;10.10;100.00;101251.59;5022806;28;20187;-82
2023/10/05 03:49:07;;;;;;;1.97;1.43;;;;;;;10.14;100.00;101262.81;5022649;28;20208;-82
2023/10/05 03:51:37;;;;;;;1.80;1.50;;;;;;;10.17;100.00;101263.69;5017405;28;20204;-82
2023/10/05 03:54:03;;;;;;;1.67;1.50;;;;;;;10.21;100.00;101265.47;5025715;28;20199;-82
2023/10/05 03:56:29;;;;;;;2.70;1.50;;;;;;;10.24;100.00;101263.78;5025967;28;20353;-81
2023/10/05 03:58:54;;;;;;;1.77;1.50;;;;;;;10.27;100.00;101274.16;5027282;28;20188;-82
2023/10/05 04:01:22;;;;;;;2.40;1.60;;;;;;;10.28;100.00;101278.47;5016214;28;20204;-82
2023/10/05 04:03:48;;;;;;;2.23;1.50;;;;;;;10.28;100.00;101276.75;5027425;28;20244;-82
2023/10/05 04:06:17;;;;;;;2.77;1.70;;;;;;;10.31;100.00;101283.66;5029531;28;20274;-82
2023/10/05 04:08:54;;;;;;;2.17;1.60;;;;;;;10.30;100.00;101269.84;5023946;28;20233;-82
2023/10/05 04:11:21;;;;;;;1.70;1.50;;;;;;;10.31;100.00;101274.19;5026641;28;20266;-82
2023/10/05 04:13:49;;;;;;;2.07;1.43;;;;;;;10.32;100.00;101278.50;5028021;28;20213;-83
2023/10/05 04:16:21;;;;;;;1.93;1.57;;;;;;;10.32;100.00;101270.75;5025719;28;20196;-82
2023/10/05 04:18:52;;;;;;;2.40;1.63;;;;;;;10.32;100.00;101267.28;5029284;28;20245;-83
2023/10/05 04:21:18;;;;;;;3.33;1.97;;;;;;;10.30;100.00;101267.28;5024743;28;20212;-84
2023/10/05 04:23:49;;;;;;;1.90;1.67;;;;;;;10.29;100.00;101257.78;5019096;28;20196;-82
2023/10/05 04:26:19;;;;;;;2.47;1.80;;;;;;;10.30;100.00;101259.50;5025483;28;20192;-81
2023/10/05 04:28:52;;;;;;;2.93;1.73;;;;;;;10.30;100.00;101263.81;5020873;28;20206;-81
2023/10/05 04:31:22;;;;;;;2.13;1.70;;;;;;;10.31;100.00;101262.94;5020569;28;20200;-82
2023/10/05 04:33:50;;;;;;;3.87;2.23;;;;;;;10.33;100.00;101259.53;5027559;28;20199;-81
2023/10/05 04:36:17;;;;;;;2.13;1.90;;;;;;;10.32;100.00;101267.28;5027393;28;20198;-82
2023/10/05 04:38:43;;;;;;;3.20;1.93;;;;;;;10.34;100.00;101265.56;5024997;28;20184;-84
2023/10/05 04:41:12;;;;;;;1.70;1.60;;;;;;;10.36;100.00;101264.72;5014863;28;20631;-83
2023/10/05 04:43:39;;;;;;;3.40;1.87;;;;;;;10.39;100.00;101263.03;5023237;28;20637;-82
2023/10/05 04:46:05;;;;;;;2.50;2.03;;;;;;;10.37;100.00;101256.09;5026663;28;20910;-82
2023/10/05 04:48:31;;;;;;;2.20;1.87;;;;;;;10.35;100.00;101262.13;5023190;28;20214;-83
2023/10/05 04:50:59;;;;;;;2.30;1.80;;;;;;;10.36;100.00;101261.28;5017677;28;20211;-82
2023/10/05 04:53:27;;;;;;;2.33;1.70;;;;;;;10.41;100.00;101264.81;5024576;28;20233;-83
2023/10/05 04:56:00;;;;;;;2.80;1.97;;;;;;;10.42;100.00;101260.47;5026398;28;20191;-84
2023/10/05 04:58:52;;;;;;;1.87;1.73;;;;;;;10.44;100.00;101254.44;5024661;28;20192;-84
2023/10/05 05:01:29;;;;;;;3.03;2.10;;;;;;;10.46;100.00;101251.88;5046090;28;20195;-83
2023/10/05 05:04:13;;;;;;;2.50;2.03;;;;;;;10.45;100.00;101240.66;5028104;28;20179;-82
2023/10/05 05:06:41;;;;;;;2.30;1.73;;;;;;;10.45;100.00;101253.59;5031541;28;20219;-82
2023/10/05 05:09:11;;;;;;;2.20;2.00;;;;;;;10.46;100.00;101250.16;5025887;28;20218;-84
2023/10/05 05:11:38;;;;;;;1.70;1.60;;;;;;;10.48;100.00;101247.59;5033814;28;20203;-82
2023/10/05 05:14:04;;;;;;;2.83;1.83;;;;;;;10.50;100.00;101248.47;5024415;28;20206;-82
2023/10/05 05:16:30;;;;;;;1.87;1.53;;;;;;;10.49;100.00;101246.75;5033859;28;20193;-83
2023/10/05 05:18:55;;;;;;;2.40;1.93;;;;;;;10.47;100.00;101238.94;5027581;28;20185;-82
2023/10/05 05:21:21;;;;;;;2.93;1.70;;;;;;;10.47;100.00;101240.69;5030272;28;20270;-79
2023/10/05 05:23:49;;;;;;;2.63;1.90;;;;;;;10.48;100.00;101239.84;5021300;28;20202;-80
2023/10/05 05:26:14;;;;;;;1.80;1.70;;;;;;;10.47;100.00;101238.09;5027530;28;20306;-82
2023/10/05 05:28:43;;;;;;;2.43;1.83;;;;;;;10.47;100.00;101241.53;5025685;28;20311;-82
2023/10/05 05:31:13;;;;;;;2.10;1.80;;;;;;;10.46;100.00;101244.13;5026401;28;20242;-84
2023/10/05 05:33:38;;;;;;;2.53;1.80;;;;;;;10.47;100.00;101243.28;5026528;28;20191;-83
2023/10/05 05:36:08;;;;;;;2.10;1.80;;;;;;;10.49;100.00;101233.81;5025443;28;20199;-82
2023/10/05 05:38:33;;;;;;;2.10;1.60;;;;;;;10.50;100.00;101231.22;5029239;28;20245;-85
2023/10/05 05:40:59;;;;;;;2.53;1.87;;;;;;;10.51;100.00;101245.88;5024573;28;20219;-84
2023/10/05 05:43:28;;;;;;;3.50;2.07;;;;;;;10.54;100.00;101251.94;5029755;28;20198;-83
2023/10/05 05:45:54;;;;;;;2.20;2.00;;;;;;;10.56;100.00;101253.69;5022317;28;20866;-83
2023/10/05 05:48:20;;;;;;;3.10;1.90;;;;;;;10.58;100.00;101262.31;5032860;28;20183;-83
2023/10/05 05:50:46;;;;;;;2.10;1.80;;;;;;;10.59;100.00;101276.16;5028794;28;20216;-82
2023/10/05 05:53:11;;;;;;;2.50;1.87;;;;;;;10.60;100.00;101267.50;5028731;28;20192;-83
2023/10/05 05:55:53;;;;;;;3.00;1.93;;;;;;;10.59;100.00;101266.66;5030161;28;20246;-84
2023/10/05 05:58:19;;;;;;;2.50;2.00;;;;;;;10.60;100.00;101262.31;5029605;28;20408;-84
2023/10/05 06:00:46;;;;;;;2.50;1.97;;;;;;;10.60;100.00;101270.97;5029628;28;20212;-83
2023/10/05 06:03:11;;;;;;;2.40;2.00;;;;;;;10.61;100.00;101267.53;5027315;28;20199;-80
2023/10/05 06:05:37;;;;;;;2.27;1.70;;;;;;;10.64;100.00;101274.44;5018683;28;20552;-82
2023/10/05 06:08:03;;;;;;;2.53;1.77;;;;;;;10.65;100.00;101284.81;5038408;28;20285;-82
2023/10/05 06:10:34;;;;;;;2.20;1.63;;;;;;;10.70;100.00;101294.31;5023422;28;20224;-81
2023/10/05 06:12:59;;;;;;;2.77;1.60;;;;;;;10.75;100.00;101288.31;5029092;28;20187;-82
2023/10/05 06:15:25;;;;;;;2.63;2.13;;;;;;;10.82;100.00;101287.50;5029894;28;20772;-82
2023/10/05 06:17:50;;;;;;;3.13;1.90;;;;;;;10.91;100.00;101296.16;5022167;28;20194;-82
2023/10/05 06:20:15;;;;;;;2.57;1.77;;;;;;;10.99;100.00;101297.09;5028056;28;20216;-82
2023/10/05 06:22:45;;;;;;;2.73;2.00;;;;;;;11.07;100.00;101307.50;5034052;28;20187;-83
2023/10/05 06:25:15;;;;;;;4.13;2.00;;;;;;;11.15;100.00;101308.41;5028747;28;20208;-82
2023/10/05 06:27:43;;;;;;;2.87;2.03;;;;;;;11.23;100.00;101300.66;5028554;28;20181;-82
2023/10/05 06:30:12;;;;;;;2.17;1.97;;;;;;;11.31;100.00;101301.56;5027993;28;20249;-82
2023/10/05 06:32:38;;;;;;;2.67;2.27;;;;;;;11.38;100.00;101310.25;5028045;28;20360;-82
2023/10/05 06:35:08;;;;;;;4.97;2.37;;;;;;;11.41;100.00;101303.34;5028309;28;20617;-82
2023/10/05 06:37:34;;;;;;;3.03;2.00;;;;;;;11.46;100.00;101305.09;5028544;28;20184;-82
2023/10/05 06:39:59;;;;;;;2.70;2.00;;;;;;;11.49;100.00;101300.78;5028435;28;20279;-82
2023/10/05 06:42:25;;;;;;;5.13;1.97;;;;;;;11.55;100.00;101308.59;5030841;28;20272;-83
2023/10/05 06:44:51;;;;;;;1.77;1.60;;;;;;;11.58;100.00;101312.91;5024065;28;21767;-80
2023/10/05 06:47:35;;;;;;;3.27;2.10;;;;;;;11.63;100.00;101313.78;5021784;28;20733;-82
2023/10/05 06:50:11;;;;;;;1.97;1.70;;;;;;;11.70;100.00;101314.69;5027516;28;20244;-80
2023/10/05 06:52:37;;;;;;;2.97;2.10;;;;;;;11.78;100.00;101305.19;5021079;28;20184;-80
2023/10/05 06:55:09;;;;;;;2.43;2.07;;;;;;;11.88;100.00;101306.91;5025641;28;20261;-82
2023/10/05 06:57:38;;;;;;;3.90;2.13;;;;;;;11.99;100.00;101311.31;5025084;28;20180;-80
2023/10/05 07:00:17;;;;;;;3.03;2.27;;;;;;;12.10;100.00;101311.34;5052116;28;20217;-80
2023/10/05 07:02:44;;;;;;;2.80;2.03;;;;;;;12.22;100.00;101306.16;5028011;28;20210;-81
2023/10/05 07:05:11;;;;;;;3.00;2.57;;;;;;;12.31;100.00;101306.16;5027071;28;20274;-82
2023/10/05 07:07:36;;;;;;;3.33;2.10;;;;;;;12.39;100.00;101316.53;5053984;28;20183;-83
2023/10/05 07:10:03;;;;;;;2.13;1.87;;;;;;;12.45;100.00;101319.13;5045091;28;20585;-81
2023/10/05 07:12:35;;;;;;;2.40;1.83;;;;;;;12.56;100.00;101318.25;5021103;28;20260;-81
2023/10/05 07:15:04;;;;;;;3.70;2.13;;;;;;;12.61;100.00;101326.91;5053528;28;20229;-81
2023/10/05 07:17:31;;;;;;;2.17;1.97;;;;;;;12.68;100.00;101333.81;5022913;28;20272;-80
2023/10/05 07:19:57;;;;;;;5.53;2.03;;;;;;;12.74;100.00;101338.13;5028108;28;20257;-81
2023/10/05 07:22:23;;;;;;;2.43;2.10;;;;;;;12.78;100.00;101338.13;5027137;28;20755;-81
2023/10/05 07:24:48;;;;;;;2.67;2.00;;;;;;;12.82;100.00;101346.81;5023298;28;20577;-81
2023/10/05 07:27:14;;;;;;;3.50;2.10;;;;;;;12.88;100.00;101346.78;5025349;28;20231;-82
2023/10/05 07:29:45;;;;;;;3.13;2.20;;;;;;;12.94;100.00;101346.78;5026158;28;20298;-80
2023/10/05 07:32:13;;;;;;;3.07;2.27;;;;;;;13.02;100.00;101340.69;5015088;28;20191;-79
2023/10/05 07:34:46;;;;;;;2.00;1.80;;;;;;;13.06;100.00;101339.81;5019756;28;20224;-80
2023/10/05 07:37:11;;;;;;;2.77;2.07;;;;;;;13.11;100.00;101345.88;5020069;28;20322;-80
2023/10/05 07:39:41;;;;;;;2.20;1.70;;;;;;;13.18;100.00;101344.13;5022967;28;20262;-80
2023/10/05 07:42:08;;;;;;;3.50;2.57;;;;;;;13.27;100.00;101344.09;5019001;28;20322;-80
2023/10/05 07:44:36;;;;;;;2.47;2.00;;;;;;;13.34;100.00;101345.81;5032899;28;20192;-79
2023/10/05 07:47:02;;;;;;;2.63;1.80;;;;;;;13.45;100.00;101350.13;5026984;28;20726;-81
2023/10/05 07:49:27;;;;;;;3.13;2.33;;;;;;;13.56;100.00;101350.94;5021874;28;20221;-79
2023/10/05 07:51:53;;;;;;;2.20;2.00;;;;;;;13.63;100.00;101355.28;5018575;28;20206;-82
2023/10/05 07:54:18;;;;;;;2.10;1.90;;;;;;;13.72;100.00;101376.03;5021924;28;20186;-81
2023/10/05 07:56:45;;;;;;;2.23;1.90;;;;;;;13.82;100.00;101370.78;5023121;28;20190;-80
2023/10/05 07:59:13;;;;;;;2.10;1.90;;;;;;;13.92;100.00;101374.19;5032216;28;20622;-81
2023/10/05 08:01:39;;;;;;;2.30;2.10;;;;;;;14.02;100.00;101387.16;5023411;28;20244;-82
2023/10/05 08:04:04;;;;;;;3.20;2.10;;;;;;;14.09;100.00;101380.16;5040883;28;20196;-80
2023/10/05 08:06:30;;;;;;;4.67;2.90;;;;;;;14.18;100.00;101380.13;5017168;28;20784;-80
2023/10/05 08:08:55;;;;;;;4.93;3.00;;;;;;;14.25;100.00;101380.94;5024428;28;20213;-81
2023/10/05 08:11:21;;;;;;;4.67;3.07;;;;;;;14.33;100.00;101376.53;5020228;28;20261;-81
2023/10/05 08:13:47;;;;;;;6.67;3.20;;;;;;;14.42;100.00;101383.44;5019826;28;20189;-80
2023/10/05 08:16:12;;;;;;;3.00;2.43;;;;;;;14.45;100.00;101385.13;5018891;28;20196;-82
2023/10/05 08:18:38;;;;;;;4.27;2.67;;;;;;;14.57;100.00;101390.28;5013904;28;20189;-81
2023/10/05 08:21:04;;;;;;;5.27;2.43;;;;;;;14.67;100.00;101383.22;5025720;28;20215;-81
2023/10/05 08:23:30;;;;;;;3.00;2.60;;;;;;;14.71;100.00;101389.31;5024777;28;20191;-81
2023/10/05 08:25:57;;;;;;;2.73;2.00;;;;;;;14.81;100.00;101387.50;5026399;28;20183;-82
2023/10/05 08:28:24;;;;;;;3.53;2.67;;;;;;;14.86;100.00;101380.50;5034783;28;20182;-81
2023/10/05 08:31:04;;;;;;;3.13;2.20;;;;;;;14.87;100.00;101379.63;5028550;28;20347;-80
2023/10/05 08:33:33;;;;;;;3.97;2.90;;;;;;;14.79;100.00;101379.69;5030057;28;20318;-82
2023/10/05 08:36:00;;;;;;;3.50;2.37;;;;;;;14.83;100.00;101381.41;5015494;28;20203;-82
2023/10/05 08:38:25;;;;;;;3.77;2.80;;;;;;;14.92;100.00;101383.91;5034186;28;20191;-81
2023/10/05 08:40:52;;;;;;;4.37;2.80;;;;;;;15.03;100.00;101377.75;5028992;28;20218;-81
2023/10/05 08:43:19;;;;;;;4.30;3.23;;;;;;;15.18;100.00;101385.41;5030037;28;20183;-79
2023/10/05 08:45:51;;;;;;;5.00;3.33;;;;;;;15.11;100.00;101375.06;5025728;28;20285;-81
2023/10/05 08:48:19;;;;;;;4.07;3.27;;;;;;;15.18;100.00;101380.19;5030192;28;20197;-81
2023/10/05 08:50:49;;;;;;;4.67;3.13;;;;;;;15.17;100.00;101370.63;5026773;28;20315;-81
2023/10/05 08:53:14;;;;;;;5.30;3.30;;;;;;;15.26;100.00;101369.69;5026940;28;20639;-82
2023/10/05 08:55:40;;;;;;;3.67;3.03;;;;;;;15.27;100.00;101368.81;5030095;28;20326;-81
2023/10/05 08:58:06;;;;;;;3.30;3.00;;;;;;;15.33;100.00;101368.72;5028576;28;20663;-80
2023/10/05 09:00:40;;;;;;;5.60;3.90;;;;;;;15.24;100.00;101369.69;5029157;28;20625;-81
2023/10/05 09:03:28;;;;;;;4.27;3.37;;;;;;;15.38;100.00;101374.75;5025833;28;20192;-82
2023/10/05 09:06:20;;;;;;;5.10;3.10;;;;;;;15.54;100.00;101378.03;5033569;28;20292;-81
2023/10/05 09:08:51;;;;;;;3.70;3.20;;;;;;;15.69;100.00;101376.97;5023110;28;20185;-82
2023/10/05 09:11:31;;;;;;;5.40;3.30;;;;;;;15.63;100.00;101384.88;5023107;28;20610;-82
2023/10/05 09:14:12;;;;;;;4.13;3.20;;;;;;;15.82;100.00;101393.31;5074081;28;20312;-82
2023/10/05 09:16:42;;;;;;;3.20;2.80;;;;;;;16.12;100.00;101372.09;5040553;28;20526;-82
2023/10/05 09:19:13;;;;;;;5.60;3.20;;;;;;;16.21;99.23;101374.53;5027963;28;20188;-80
2023/10/05 09:21:55;;;;;;;5.03;3.30;;;;;;;16.42;98.18;101380.34;5018436;28;20215;-81
2023/10/05 09:24:21;;;;;;;6.07;3.37;;;;;;;16.40;96.59;101382.09;5035732;28;20303;-82
2023/10/05 09:26:50;;;;;;;5.57;3.77;;;;;;;16.42;97.21;101388.19;5020269;28;20222;-79
2023/10/05 09:29:36;;;;;;;3.37;3.00;;;;;;;16.44;97.73;101394.25;5031841;28;20565;-82
2023/10/05 09:32:08;;;;;;;3.13;2.63;;;;;;;16.46;97.52;101398.53;5026818;28;20281;-80
2023/10/05 09:34:49;;;;;;;5.23;3.13;;;;;;;16.50;97.92;101390.66;5028134;28;20193;-80
2023/10/05 09:37:16;;;;;;;4.73;2.80;;;;;;;16.53;97.73;101382.78;5027963;28;20200;-81
2023/10/05 09:39:54;;;;;;;5.53;3.50;;;;;;;16.58;97.77;101383.56;5034510;28;20259;-78
2023/10/05 09:42:26;;;;;;;9.30;3.87;;;;;;;16.61;97.59;101389.63;5028432;28;20187;-82
2023/10/05 09:45:01;;;;;;;4.63;3.20;;;;;;;16.80;97.36;101384.03;5022131;28;20910;-80
2023/10/05 09:47:32;;;;;;;35.37;7.30;;;;;;;16.86;97.22;101389.19;5019750;28;20201;-79
2023/10/05 09:50:00;;;;;;;11.17;4.83;;;;;;;16.91;97.40;101395.19;5024452;28;20290;-81
2023/10/05 09:52:34;;;;;;;6.37;3.90;;;;;;;17.00;96.80;101399.44;5023067;28;20279;-80
2023/10/05 09:55:00;;;;;;;6.07;4.07;;;;;;;17.11;96.83;101390.53;5024013;28;20677;-82
2023/10/05 09:57:27;;;;;;;3.50;3.03;;;;;;;17.25;96.24;101392.88;5027849;28;21030;-82
2023/10/05 10:00:00;;;;;;;5.17;3.30;;;;;;;17.29;95.99;101394.53;5025938;28;20207;-82
2023/10/05 10:02:34;;;;;;;6.47;3.90;;;;;;;17.08;95.39;101391.47;5025744;28;20220;-82
2023/10/05 10:05:16;;;;;;;5.27;3.70;;;;;;;17.08;95.25;101398.44;5028313;28;20212;-82
2023/10/05 10:07:49;;;;;;;5.53;3.70;;;;;;;17.01;95.75;101401.16;5031565;28;20295;-83
2023/10/05 10:10:18;;;;;;;5.30;3.50;;;;;;;16.99;95.60;101402.94;5022666;28;20852;-82
2023/10/05 10:12:47;;;;;;;6.83;3.67;;;;;;;17.03;96.08;101407.22;5030773;28;20195;-82
2023/10/05 10:15:33;;;;;;;5.63;3.10;;;;;;;17.11;96.26;101401.00;5021358;28;20194;-79
2023/10/05 10:18:14;;;;;;;5.87;3.70;;;;;;;17.23;95.20;101400.75;5022919;28;20196;-80
2023/10/05 10:20:51;;;;;;;6.23;3.87;;;;;;;17.34;95.13;101397.94;5021292;28;20207;-80
2023/10/05 10:23:22;;;;;;;7.23;4.30;;;;;;;17.39;93.97;101392.59;5022494;28;20260;-78
2023/10/05 10:25:51;;;;;;;11.97;4.83;;;;;;;17.53;93.95;101398.44;5017640;28;20193;-80
2023/10/05 10:28:24;;;;;;;6.30;4.40;;;;;;;17.64;93.31;101390.38;5018224;28;20229;-81
2023/10/05 10:31:22;;;;;;;5.07;3.77;;;;;;;17.71;93.11;101391.09;5020343;28;20266;-80
2023/10/05 10:33:51;;;;;;;6.37;4.07;;;;;;;17.80;93.28;101390.88;5045889;28;20341;-81
2023/10/05 10:36:38;;;;;;;7.00;3.63;;;;;;;17.94;92.71;101380.97;5029535;28;20194;-81
2023/10/05 10:39:22;;;;;;;6.60;4.60;;;;;;;18.11;91.74;101372.78;5013400;28;20224;-81
2023/10/05 10:42:09;;;;;;;6.60;4.10;;;;;;;18.28;90.27;101367.13;5019304;28;20210;-81
2023/10/05 10:44:56;;;;;;;5.40;3.97;;;;;;;18.19;89.06;101374.34;5014895;28;20194;-81
2023/10/05 10:47:24;;;;;;;8.00;4.00;;;;;;;18.32;88.95;101386.25;5024819;28;20198;-80
2023/10/05 10:50:04;;;;;;;6.87;4.00;;;;;;;18.36;89.16;101390.53;5021864;28;20220;-81
2023/10/05 10:52:30;;;;;;;7.77;4.83;;;;;;;18.40;88.41;101399.19;5017689;28;20282;-81
2023/10/05 10:54:59;;;;;;;6.40;4.17;;;;;;;18.45;88.94;101405.19;5016955;28;20943;-80
2023/10/05 10:57:24;;;;;;;5.67;4.17;;;;;;;18.55;88.42;101392.72;5015159;28;20536;-80
2023/10/05 11:00:37;;;;;;;5.03;3.53;;;;;;;18.68;88.39;101381.00;5022509;28;20190;-80
2023/10/05 11:02:38;;;;;;;6.17;4.03;;;;;;;18.74;87.46;101383.50;5021353;28;20244;-79
2023/10/05 11:05:05;;;;;;;6.20;4.17;;;;;;;18.91;87.11;101384.78;5016542;28;20206;-81
2023/10/05 11:07:31;;;;;;;9.33;4.23;;;;;;;18.90;86.60;101380.47;5017010;28;20195;-79
2023/10/05 11:09:59;;;;;;;7.33;4.00;;;;;;;19.01;86.26;101383.69;5022660;28;20218;-81
2023/10/05 11:12:25;;;;;;;5.87;3.57;;;;;;;19.13;86.70;101381.63;5007204;28;20206;-84
2023/10/05 11:15:00;;;;;;;6.40;4.00;;;;;;;19.18;85.76;101377.97;5012044;28;20184;-79
2023/10/05 11:17:31;;;;;;;7.63;4.87;;;;;;;19.09;83.49;101378.25;5041758;28;20180;-79
2023/10/05 11:20:12;;;;;;;8.00;4.77;;;;;;;19.28;83.91;101380.38;5042398;28;20188;-80
2023/10/05 11:22:42;;;;;;;7.83;4.70;;;;;;;19.55;83.35;101383.09;5016732;28;20210;-80
2023/10/05 11:25:23;;;;;;;6.67;3.97;;;;;;;19.67;81.70;101364.34;5029169;28;20209;-81
2023/10/05 11:27:56;;;;;;;7.03;4.57;;;;;;;19.73;81.33;101342.28;5053883;28;20227;-78
2023/10/05 11:30:25;;;;;;;6.27;3.83;;;;;;;19.95;80.77;101337.28;5029100;28;20290;-83
2023/10/05 11:32:56;;;;;;;7.47;4.70;;;;;;;20.00;80.11;101334.50;5018596;28;20199;-79
2023/10/05 11:35:28;;;;;;;5.10;4.33;;;;;;;20.16;79.83;101334.88;5018512;28;20565;-81
2023/10/05 11:38:04;;;;;;;7.87;4.30;;;;;;;20.04;78.69;101330.88;5013550;28;20765;-80